Nashville, Tennessee
Traffic Map
Current Weather Conditions
Nashville, Tennessee
Overcast Drizzle
Overcast
47°
Feels Like: 43°
Wind Chill: 43° Ceiling: 1800
Heat Index: 47° Visibility: 5mi
Dew Point: 44° Wind: 8mph
Humidity: 90% Direction: 80° (E)
Pressure: 29.82in Gusts: 0mph
Raw Report DataKBNA 060138Z 08007KT 5SM -DZ BR SCT006 BKN018 OVC120 08/07 A2982 RMK AO2 RAB07E28DZB36 P0000 T00830067
Traffic Incident Summary
Active as of:
Severity:
Category:
InformationThere was an issue retrieving the traffic information for this location. Please try a different location or try again shortly.
Advertisements
Track Severe Weather on mobile